createdAt,value
2023-03-04T00:01:48.888Z,27.85
2023-03-04T00:04:15.633Z,26.38
2023-03-04T00:06:42.083Z,28.02
2023-03-04T00:09:08.549Z,26.67
2023-03-04T00:11:34.945Z,24.70
2023-03-04T00:14:01.390Z,26.00
2023-03-04T00:16:28.457Z,26.45
2023-03-04T00:18:55.827Z,27.63
2023-03-04T00:21:22.499Z,24.50
2023-03-04T00:23:49.370Z,27.65
2023-03-04T00:26:16.491Z,27.77
2023-03-04T00:28:43.371Z,25.83
2023-03-04T00:31:10.378Z,25.70
2023-03-04T00:33:36.834Z,31.40
2023-03-04T00:36:04.601Z,30.83
2023-03-04T00:38:31.038Z,27.40
2023-03-04T00:40:57.619Z,29.08
2023-03-04T00:43:24.278Z,29.17
2023-03-04T00:45:50.653Z,28.95
2023-03-04T00:48:17.239Z,25.05
2023-03-04T00:50:44.298Z,28.58
2023-03-04T00:53:10.849Z,27.30
2023-03-04T00:55:37.663Z,31.33
2023-03-04T00:58:05.126Z,26.90
2023-03-04T01:00:31.490Z,27.92
2023-03-04T01:02:57.866Z,30.55
2023-03-04T01:05:24.308Z,29.48
2023-03-04T01:07:50.736Z,30.67
2023-03-04T01:10:17.852Z,30.08
2023-03-04T01:12:44.329Z,27.10
2023-03-04T01:15:13.109Z,27.90
2023-03-04T01:17:40.141Z,30.70
2023-03-04T01:20:08.110Z,27.05
2023-03-04T01:22:35.368Z,25.73
2023-03-04T01:25:01.882Z,27.92
2023-03-04T01:27:28.279Z,26.75
2023-03-04T01:29:54.683Z,27.45
2023-03-04T01:32:22.501Z,27.55
2023-03-04T01:34:49.005Z,25.65
2023-03-04T01:37:15.388Z,28.88
2023-03-04T01:39:41.850Z,24.25
2023-03-04T01:42:20.428Z,28.98
2023-03-04T01:44:47.973Z,28.38
2023-03-04T01:47:15.358Z,28.90
2023-03-04T01:49:41.902Z,27.98
2023-03-04T01:52:13.589Z,27.15
2023-03-04T01:54:41.096Z,28.88
2023-03-04T01:57:19.709Z,29.50
2023-03-04T01:59:47.428Z,26.83
2023-03-04T02:02:14.594Z,26.38
2023-03-04T02:04:42.567Z,25.42
2023-03-04T02:07:09.319Z,26.20
2023-03-04T02:09:37.408Z,24.52
2023-03-04T02:12:04.569Z,25.98
2023-03-04T02:14:31.226Z,25.67
2023-03-04T02:16:57.739Z,24.98
2023-03-04T02:19:29.983Z,25.45
2023-03-04T02:21:56.548Z,25.45
2023-03-04T02:24:33.613Z,25.02
2023-03-04T02:27:00.019Z,25.50
2023-03-04T02:29:27.874Z,25.35
2023-03-04T02:31:55.770Z,26.00
2023-03-04T02:34:24.867Z,22.15
2023-03-04T02:36:54.345Z,23.92
2023-03-04T02:39:20.671Z,24.92
2023-03-04T02:41:49.887Z,24.90
2023-03-04T02:44:38.125Z,26.55
2023-03-04T02:47:07.361Z,24.20
2023-03-04T02:49:36.891Z,26.30
2023-03-04T02:52:10.519Z,27.25
2023-03-04T02:54:38.417Z,26.50
2023-03-04T02:57:08.189Z,25.35
2023-03-04T02:59:38.573Z,24.75
2023-03-04T03:02:06.808Z,24.40
2023-03-04T03:04:36.420Z,26.15
2023-03-04T03:07:07.208Z,28.10
2023-03-04T03:09:33.747Z,30.40
2023-03-04T03:12:00.563Z,28.80
2023-03-04T03:14:28.078Z,26.67
2023-03-04T03:16:54.900Z,27.67
2023-03-04T03:19:21.258Z,29.60
2023-03-04T03:21:47.763Z,27.08
2023-03-04T03:24:14.208Z,29.40
2023-03-04T03:26:40.835Z,29.48
2023-03-04T03:29:07.981Z,29.17
2023-03-04T03:31:34.396Z,29.13
2023-03-04T03:34:00.845Z,30.10
2023-03-04T03:36:27.731Z,30.60
2023-03-04T03:38:54.183Z,28.35
2023-03-04T03:41:20.560Z,27.42
2023-03-04T03:43:47.019Z,26.90
2023-03-04T03:46:13.377Z,28.27
2023-03-04T03:48:39.739Z,25.33
2023-03-04T03:51:06.089Z,27.23
2023-03-04T03:53:32.473Z,27.75
2023-03-04T03:55:59.110Z,27.13
2023-03-04T03:58:26.885Z,29.33
2023-03-04T04:00:53.325Z,28.33
2023-03-04T04:03:19.998Z,27.42
2023-03-04T04:05:46.404Z,28.95
2023-03-04T04:08:17.149Z,27.00
2023-03-04T04:10:44.318Z,25.40
2023-03-04T04:13:11.456Z,27.00
2023-03-04T04:15:38.691Z,26.85
2023-03-04T04:18:06.155Z,28.63
2023-03-04T04:20:32.636Z,25.35
2023-03-04T04:22:59.006Z,27.85
2023-03-04T04:25:25.469Z,27.92
2023-03-04T04:27:51.823Z,27.98
2023-03-04T04:30:18.474Z,26.63
2023-03-04T04:32:44.930Z,26.83
2023-03-04T04:35:11.351Z,26.05
2023-03-04T04:37:37.733Z,28.33
2023-03-04T04:40:04.785Z,27.63
2023-03-04T04:42:31.208Z,28.25
2023-03-04T04:44:57.612Z,29.55
2023-03-04T04:47:24.215Z,27.20
2023-03-04T04:49:51.667Z,26.90
2023-03-04T04:52:18.079Z,28.42
2023-03-04T04:54:44.535Z,28.25
2023-03-04T04:57:10.879Z,26.65
2023-03-04T04:59:37.354Z,29.52
2023-03-04T05:02:03.769Z,26.08
2023-03-04T05:04:30.163Z,26.55
2023-03-04T05:06:56.684Z,27.17
2023-03-04T05:09:23.278Z,26.63
2023-03-04T05:11:49.718Z,26.10
2023-03-04T05:14:16.114Z,27.02
2023-03-04T05:16:42.472Z,25.83
2023-03-04T05:19:09.539Z,26.70
2023-03-04T05:21:35.949Z,26.02
2023-03-04T05:24:02.381Z,26.63
2023-03-04T05:26:28.723Z,28.42
2023-03-04T05:28:55.114Z,28.23
2023-03-04T05:31:21.536Z,27.73
2023-03-04T05:33:47.971Z,28.55
2023-03-04T05:36:14.356Z,28.95
2023-03-04T05:38:40.714Z,29.33
2023-03-04T05:41:07.724Z,28.15
2023-03-04T05:43:35.861Z,27.50
2023-03-04T05:46:03.752Z,27.85
2023-03-04T05:48:30.285Z,28.48
2023-03-04T05:50:58.577Z,29.35
2023-03-04T05:53:25.325Z,30.85
2023-03-04T05:55:51.916Z,28.45
2023-03-04T05:58:19.241Z,31.67
2023-03-04T06:00:46.801Z,29.88
2023-03-04T06:03:20.824Z,30.17
2023-03-04T06:05:47.974Z,28.65
2023-03-04T06:08:14.743Z,27.30
2023-03-04T06:10:41.881Z,30.10
2023-03-04T06:13:09.116Z,27.75
2023-03-04T06:15:35.662Z,29.23
2023-03-04T06:18:02.575Z,28.98
2023-03-04T06:20:29.071Z,27.25
2023-03-04T06:22:55.441Z,29.17
2023-03-04T06:25:22.102Z,28.67
2023-03-04T06:27:50.641Z,28.25
2023-03-04T06:30:17.956Z,27.45
2023-03-04T06:32:44.459Z,26.85
2023-03-04T06:35:12.508Z,27.23
2023-03-04T06:37:39.385Z,28.92
2023-03-04T06:40:07.571Z,28.52
2023-03-04T06:42:35.706Z,28.10
2023-03-04T06:45:03.672Z,27.65
2023-03-04T06:47:30.423Z,27.50
2023-03-04T06:49:56.854Z,26.65
2023-03-04T06:52:23.588Z,27.95
2023-03-04T06:54:50.091Z,26.55
2023-03-04T06:57:16.622Z,26.08
2023-03-04T06:59:43.154Z,27.65
2023-03-04T07:02:12.741Z,26.75
2023-03-04T07:04:40.014Z,24.88
2023-03-04T07:07:06.452Z,27.27
2023-03-04T07:09:32.893Z,27.60
2023-03-04T07:11:59.267Z,25.45
2023-03-04T07:14:25.831Z,25.88
2023-03-04T07:16:52.194Z,24.92
2023-03-04T07:19:18.812Z,25.48
2023-03-04T07:21:45.384Z,25.60
2023-03-04T07:24:11.824Z,26.98
2023-03-04T07:26:38.956Z,22.80
2023-03-04T07:29:06.071Z,23.65
2023-03-04T07:31:34.654Z,22.17
2023-03-04T07:34:04.587Z,22.70
2023-03-04T07:36:31.435Z,25.15
2023-03-04T07:38:57.935Z,25.30
2023-03-04T07:41:26.599Z,23.52
2023-03-04T07:43:53.599Z,23.35
2023-03-04T07:46:20.257Z,22.23
2023-03-04T07:48:46.660Z,22.73
2023-03-04T07:51:18.890Z,20.77
2023-03-04T07:53:51.014Z,16.10
2023-03-04T07:56:21.536Z,21.60
2023-03-04T07:58:48.576Z,19.88
2023-03-04T08:01:17.839Z,18.33
2023-03-04T08:03:44.752Z,19.75
2023-03-04T08:06:13.879Z,18.13
2023-03-04T08:08:40.357Z,17.10
2023-03-04T08:11:08.767Z,19.27
2023-03-04T08:13:35.766Z,17.63
2023-03-04T08:16:02.854Z,17.13
2023-03-04T08:18:29.293Z,18.98
2023-03-04T08:20:55.820Z,17.38
2023-03-04T08:23:22.417Z,18.73
2023-03-04T08:25:48.900Z,16.50
2023-03-04T08:28:15.626Z,18.15
2023-03-04T08:30:42.748Z,16.08
2023-03-04T08:33:09.927Z,15.45
2023-03-04T08:35:39.660Z,17.85
2023-03-04T08:38:07.177Z,16.13
2023-03-04T08:40:33.993Z,15.75
2023-03-04T08:43:00.667Z,14.35
2023-03-04T08:45:27.099Z,17.45
2023-03-04T08:47:53.508Z,16.27
2023-03-04T08:50:22.303Z,15.88
2023-03-04T08:52:48.977Z,15.93
2023-03-04T08:55:15.607Z,16.40
2023-03-04T08:57:42.101Z,14.77
2023-03-04T09:00:09.169Z,14.93
2023-03-04T09:02:35.532Z,14.15
2023-03-04T09:05:01.917Z,14.93
2023-03-04T09:07:28.392Z,15.82
2023-03-04T09:09:54.894Z,15.05
2023-03-04T09:12:21.300Z,15.60
2023-03-04T09:14:53.302Z,14.70
2023-03-04T09:17:27.610Z,15.05
2023-03-04T09:19:53.984Z,15.55
2023-03-04T09:22:20.545Z,14.40
2023-03-04T09:24:46.952Z,14.70
2023-03-04T09:27:13.319Z,15.30
2023-03-04T09:29:39.741Z,13.43
2023-03-04T09:32:06.625Z,13.85
2023-03-04T09:34:33.210Z,14.43
2023-03-04T09:36:59.595Z,14.32
2023-03-04T09:39:26.224Z,13.43
2023-03-04T09:41:58.629Z,14.43
2023-03-04T09:44:37.388Z,12.48
2023-03-04T09:47:10.888Z,13.27
2023-03-04T09:49:40.574Z,12.50
2023-03-04T09:52:37.603Z,12.60
2023-03-04T09:55:17.844Z,11.93
2023-03-04T09:57:53.683Z,12.43
2023-03-04T10:00:38.775Z,13.95
2023-03-04T10:03:18.452Z,13.85
2023-03-04T10:05:49.852Z,11.60
2023-03-04T10:08:41.564Z,11.82
2023-03-04T10:11:15.861Z,12.52
2023-03-04T10:13:53.287Z,12.52
2023-03-04T10:16:23.077Z,12.48
2023-03-04T10:19:14.596Z,11.77
2023-03-04T10:21:49.592Z,12.38
2023-03-04T10:24:20.126Z,11.02
2023-03-04T10:26:51.332Z,12.55
2023-03-04T10:29:20.630Z,13.45
2023-03-04T10:31:47.231Z,13.10
2023-03-04T10:34:15.915Z,11.65
2023-03-04T10:37:01.951Z,12.05
2023-03-04T10:39:31.634Z,11.77
2023-03-04T10:41:59.884Z,12.50
2023-03-04T10:44:27.375Z,12.02
2023-03-04T10:46:55.919Z,11.82
2023-03-04T10:49:25.014Z,10.75
2023-03-04T10:51:57.530Z,11.13
2023-03-04T10:54:29.615Z,10.68
2023-03-04T10:57:00.425Z,12.60
2023-03-04T10:59:41.909Z,11.60
2023-03-04T11:02:23.122Z,10.65
2023-03-04T11:05:04.778Z,10.45
2023-03-04T11:07:34.105Z,10.45
2023-03-04T11:10:28.243Z,10.25
2023-03-04T11:13:17.540Z,11.65
2023-03-04T11:15:56.816Z,10.63
2023-03-04T11:18:30.480Z,10.45
2023-03-04T11:20:57.768Z,11.63
2023-03-04T11:23:51.915Z,8.93
2023-03-04T11:26:30.649Z,10.77
2023-03-04T11:29:18.262Z,10.68
2023-03-04T11:31:52.205Z,10.73
2023-03-04T11:34:27.182Z,9.38
2023-03-04T11:37:27.886Z,9.75
2023-03-04T11:39:57.090Z,9.52
2023-03-04T11:42:42.223Z,9.20
2023-03-04T11:45:29.135Z,9.20
2023-03-04T11:48:16.356Z,10.68
2023-03-04T11:50:49.725Z,9.70
2023-03-04T11:53:26.603Z,9.05
2023-03-04T11:56:05.364Z,9.15
2023-03-04T11:58:53.320Z,9.27
2023-03-04T12:01:38.414Z,9.80
2023-03-04T12:04:14.233Z,9.52
2023-03-04T12:07:05.559Z,9.30
2023-03-04T12:09:53.848Z,8.80
2023-03-04T12:12:29.343Z,8.88
2023-03-04T12:15:08.102Z,9.05
2023-03-04T12:18:06.803Z,8.95
2023-03-04T12:20:48.433Z,9.23
2023-03-04T12:23:26.313Z,8.75
2023-03-04T12:26:00.485Z,9.05
2023-03-04T12:28:40.664Z,8.80
2023-03-04T12:31:28.463Z,9.38
2023-03-04T12:34:31.332Z,9.18
2023-03-04T12:37:07.743Z,8.18
2023-03-04T12:39:45.509Z,7.80
2023-03-04T12:42:20.888Z,8.35
2023-03-04T12:45:03.000Z,8.30
2023-03-04T12:48:10.945Z,8.13
2023-03-04T12:51:01.006Z,8.63
2023-03-04T12:53:36.052Z,8.52
2023-03-04T12:56:04.907Z,8.55
2023-03-04T12:58:33.720Z,7.97
2023-03-04T13:01:15.762Z,7.85
2023-03-04T13:04:09.453Z,9.45
2023-03-04T13:06:46.482Z,7.80
2023-03-04T13:09:26.832Z,9.10
2023-03-04T13:12:02.941Z,10.88
2023-03-04T13:14:31.399Z,7.72
2023-03-04T13:17:01.737Z,8.20
2023-03-04T13:19:46.314Z,7.75
2023-03-04T13:22:35.209Z,7.80
2023-03-04T13:25:20.562Z,8.55
2023-03-04T13:27:50.455Z,8.55
2023-03-04T13:30:32.199Z,7.07
2023-03-04T13:33:18.979Z,7.45
2023-03-04T13:35:51.154Z,7.85
2023-03-04T13:38:26.796Z,8.05
2023-03-04T13:41:15.059Z,8.93
2023-03-04T13:43:55.434Z,8.38
2023-03-04T13:46:24.609Z,7.85
2023-03-04T13:48:51.032Z,7.57
2023-03-04T13:51:29.667Z,8.45
2023-03-04T13:53:59.295Z,8.27
2023-03-04T13:56:37.469Z,8.65
2023-03-04T13:59:27.080Z,10.80
2023-03-04T14:02:00.923Z,8.60
2023-03-04T14:04:36.038Z,8.82
2023-03-04T14:07:19.143Z,8.27
2023-03-04T14:10:23.074Z,8.73
2023-03-04T14:12:57.925Z,9.40
2023-03-04T14:15:31.881Z,7.95
2023-03-04T14:18:00.863Z,8.05
2023-03-04T14:20:33.166Z,9.93
2023-03-04T14:23:01.828Z,8.25
2023-03-04T14:25:30.775Z,10.70
2023-03-04T14:28:13.713Z,9.85
2023-03-04T14:30:43.974Z,8.85
2023-03-04T14:33:21.069Z,8.82
2023-03-04T14:35:50.773Z,8.43
2023-03-04T14:38:23.331Z,7.90
2023-03-04T14:41:16.477Z,8.15
2023-03-04T14:44:01.544Z,7.95
2023-03-04T14:46:34.669Z,9.68
2023-03-04T14:51:48.045Z,8.90
2023-03-04T14:54:26.689Z,10.18
2023-03-04T14:56:53.119Z,8.60
2023-03-04T14:59:36.632Z,8.25
2023-03-04T15:02:35.467Z,8.77
2023-03-04T15:05:16.925Z,10.57
2023-03-04T15:07:49.529Z,10.27
2023-03-04T15:10:22.025Z,9.33
2023-03-04T15:12:57.256Z,9.57
2023-03-04T15:15:33.224Z,9.80
2023-03-04T15:18:14.121Z,10.70
2023-03-04T15:20:40.556Z,12.10
2023-03-04T15:23:07.319Z,10.13
2023-03-04T15:25:34.485Z,10.63
2023-03-04T15:28:03.775Z,9.30
2023-03-04T15:30:34.370Z,10.38
2023-03-04T15:33:01.121Z,9.10
2023-03-04T15:35:31.766Z,11.05
2023-03-04T15:37:58.672Z,9.20
2023-03-04T15:40:34.262Z,10.75
2023-03-04T15:43:03.321Z,10.80
2023-03-04T15:45:35.770Z,11.48
2023-03-04T15:48:07.631Z,8.93
2023-03-04T15:50:36.042Z,10.35
2023-03-04T15:53:05.621Z,9.20
2023-03-04T15:55:33.342Z,9.10
2023-03-04T15:58:00.509Z,12.07
2023-03-04T16:00:27.383Z,10.43
2023-03-04T16:02:53.853Z,10.63
2023-03-04T16:05:21.374Z,11.25
2023-03-04T16:07:50.220Z,10.02
2023-03-04T16:10:27.938Z,10.25
2023-03-04T16:12:54.794Z,12.15
2023-03-04T16:15:23.506Z,12.43
2023-03-04T16:17:50.463Z,10.98
2023-03-04T16:20:20.713Z,10.25
2023-03-04T16:22:51.151Z,10.52
2023-03-04T16:25:18.207Z,11.85
2023-03-04T16:27:44.768Z,10.93
2023-03-04T16:30:20.622Z,10.75
2023-03-04T16:32:47.031Z,10.52
2023-03-04T16:35:14.899Z,10.10
2023-03-04T16:37:42.353Z,11.23
2023-03-04T16:40:12.701Z,11.90
2023-03-04T16:42:40.021Z,11.73
2023-03-04T16:45:10.370Z,11.02
2023-03-04T16:47:36.761Z,11.30
2023-03-04T16:50:03.327Z,12.25
2023-03-04T16:52:32.088Z,10.68
2023-03-04T16:54:59.183Z,10.90
2023-03-04T16:57:28.319Z,11.75
2023-03-04T16:59:55.234Z,11.65
2023-03-04T17:02:24.337Z,10.90
2023-03-04T17:04:50.763Z,12.15
2023-03-04T17:07:17.145Z,13.82
2023-03-04T17:09:43.983Z,11.32
2023-03-04T17:12:11.947Z,11.88
2023-03-04T17:14:39.304Z,11.25
2023-03-04T17:17:07.471Z,12.10
2023-03-04T17:19:33.842Z,12.60
2023-03-04T17:22:01.644Z,19.45
2023-03-04T17:24:28.317Z,14.30
2023-03-04T17:26:54.799Z,11.65
2023-03-04T17:29:21.206Z,11.57
2023-03-04T17:31:47.689Z,11.02
2023-03-04T17:34:14.248Z,12.13
2023-03-04T17:36:40.775Z,11.50
2023-03-04T17:39:07.379Z,11.52
2023-03-04T17:41:36.026Z,11.02
2023-03-04T17:44:02.994Z,10.68
2023-03-04T17:46:29.993Z,10.98
2023-03-04T17:49:00.264Z,11.07
2023-03-04T17:51:31.639Z,11.00
2023-03-04T17:53:59.213Z,10.45
2023-03-04T17:56:29.920Z,11.27
2023-03-04T17:58:58.007Z,11.55
2023-03-04T18:01:25.042Z,12.73
2023-03-04T18:03:51.959Z,13.15
2023-03-04T18:06:19.078Z,13.43
2023-03-04T18:08:46.151Z,12.95
2023-03-04T18:11:12.601Z,11.40
2023-03-04T18:13:40.392Z,11.43
2023-03-04T18:16:08.826Z,11.77
2023-03-04T18:18:35.994Z,12.10
2023-03-04T18:21:02.876Z,11.73
2023-03-04T18:23:29.673Z,12.43
2023-03-04T18:25:57.254Z,12.18
2023-03-04T18:28:24.193Z,13.30
2023-03-04T18:30:52.249Z,11.88
2023-03-04T18:33:19.403Z,12.50
2023-03-04T18:35:46.094Z,12.98
2023-03-04T18:38:12.685Z,17.50
2023-03-04T18:40:40.450Z,12.98
2023-03-04T18:43:07.070Z,14.73
2023-03-04T18:45:33.493Z,13.93
2023-03-04T18:48:00.326Z,14.35
2023-03-04T18:50:26.848Z,12.10
2023-03-04T18:52:54.095Z,13.05
2023-03-04T18:55:21.792Z,12.20
2023-03-04T18:57:54.493Z,13.70
2023-03-04T19:00:23.167Z,13.63
2023-03-04T19:02:57.098Z,14.65
2023-03-04T19:05:27.569Z,15.27
2023-03-04T19:07:54.252Z,15.68
2023-03-04T19:10:20.934Z,14.60
2023-03-04T19:12:47.756Z,17.30
2023-03-04T19:15:15.303Z,19.17
2023-03-04T19:17:45.156Z,14.57
2023-03-04T19:20:13.300Z,13.75
2023-03-04T19:22:39.687Z,13.63
2023-03-04T19:25:06.683Z,13.98
2023-03-04T19:27:33.111Z,13.38
2023-03-04T19:29:59.471Z,16.13
2023-03-04T19:32:26.154Z,19.02
2023-03-04T19:34:52.678Z,17.90
2023-03-04T19:37:19.073Z,16.92
2023-03-04T19:39:46.003Z,13.85
2023-03-04T19:42:13.254Z,13.60
2023-03-04T19:44:41.271Z,13.63
2023-03-04T19:47:08.548Z,12.77
2023-03-04T19:49:35.092Z,13.88
2023-03-04T19:52:01.939Z,14.10
2023-03-04T19:54:29.469Z,12.43
2023-03-04T19:56:56.449Z,12.25
2023-03-04T19:59:22.874Z,12.68
2023-03-04T20:01:49.367Z,12.48
2023-03-04T20:04:18.269Z,14.55
2023-03-04T20:06:47.432Z,14.40
2023-03-04T20:09:15.347Z,14.02
2023-03-04T20:11:56.784Z,12.45
2023-03-04T20:14:24.923Z,10.85
2023-03-04T20:16:51.408Z,12.68
2023-03-04T20:19:17.790Z,14.10
2023-03-04T20:21:44.308Z,11.75
2023-03-04T20:24:10.761Z,12.45
2023-03-04T20:26:39.311Z,12.77
2023-03-04T20:29:05.693Z,13.30
2023-03-04T20:31:35.757Z,12.75
2023-03-04T20:34:02.186Z,12.88
2023-03-04T20:36:29.517Z,13.60
2023-03-04T20:39:02.272Z,12.45
2023-03-04T20:41:30.009Z,13.10
2023-03-04T20:43:56.519Z,12.52
2023-03-04T20:46:28.763Z,12.43
2023-03-04T20:49:00.724Z,12.15
2023-03-04T20:51:28.890Z,13.90
2023-03-04T20:53:56.359Z,13.40
2023-03-04T20:56:23.909Z,13.30
2023-03-04T20:58:51.744Z,14.30
2023-03-04T21:01:18.401Z,13.52
2023-03-04T21:03:45.367Z,13.55
2023-03-04T21:06:15.629Z,13.68
2023-03-04T21:08:43.708Z,14.85
2023-03-04T21:11:12.095Z,14.13
2023-03-04T21:13:41.041Z,12.98
2023-03-04T21:16:12.393Z,14.00
2023-03-04T21:18:39.526Z,13.40
2023-03-04T21:21:13.709Z,13.65
2023-03-04T21:23:40.174Z,13.13
2023-03-04T21:26:06.890Z,14.10
2023-03-04T21:28:33.845Z,11.82
2023-03-04T21:31:00.531Z,14.15
2023-03-04T21:33:32.061Z,12.18
2023-03-04T21:35:58.605Z,13.32
2023-03-04T21:38:25.153Z,13.43
2023-03-04T21:40:52.085Z,13.02
2023-03-04T21:43:23.771Z,14.35
2023-03-04T21:45:55.459Z,12.88
2023-03-04T21:48:22.889Z,13.73
2023-03-04T21:50:49.788Z,13.25
2023-03-04T21:53:21.221Z,13.00
2023-03-04T21:55:49.309Z,13.65
2023-03-04T21:58:15.815Z,13.40
2023-03-04T22:00:42.594Z,13.13
2023-03-04T22:03:09.262Z,13.32
2023-03-04T22:05:40.582Z,12.70
2023-03-04T22:08:07.090Z,12.98
2023-03-04T22:10:40.478Z,12.48
2023-03-04T22:13:09.131Z,13.23
2023-03-04T22:15:37.694Z,13.75
2023-03-04T22:18:06.655Z,14.07
2023-03-04T22:20:35.135Z,12.88
2023-03-04T22:23:01.714Z,14.85
2023-03-04T22:25:28.452Z,12.80
2023-03-04T22:27:55.243Z,14.23
2023-03-04T22:30:21.989Z,13.18
2023-03-04T22:32:49.435Z,14.82
2023-03-04T22:35:16.077Z,13.40
2023-03-04T22:37:43.547Z,14.40
2023-03-04T22:40:15.017Z,13.85
2023-03-04T22:42:43.353Z,13.75
2023-03-04T22:45:12.358Z,14.10
2023-03-04T22:47:39.183Z,14.20
2023-03-04T22:50:06.491Z,14.27
2023-03-04T22:52:33.293Z,14.25
2023-03-04T22:54:59.679Z,13.45
2023-03-04T22:57:26.092Z,14.05
2023-03-04T22:59:52.497Z,15.02
2023-03-04T23:02:19.063Z,14.40
2023-03-04T23:04:45.478Z,15.68
2023-03-04T23:07:11.872Z,15.63
2023-03-04T23:09:38.252Z,14.85
2023-03-04T23:12:05.049Z,16.02
2023-03-04T23:14:31.465Z,15.35
2023-03-04T23:16:57.891Z,14.82
2023-03-04T23:19:24.387Z,15.95
2023-03-04T23:21:50.812Z,14.73
2023-03-04T23:24:17.173Z,15.52
2023-03-04T23:26:43.739Z,15.30
2023-03-04T23:29:13.580Z,16.05
2023-03-04T23:31:40.036Z,16.58
2023-03-04T23:34:06.860Z,14.40
2023-03-04T23:36:35.249Z,14.48
2023-03-04T23:39:03.095Z,13.02
2023-03-04T23:41:31.009Z,13.85
2023-03-04T23:43:58.615Z,13.77
2023-03-04T23:46:26.155Z,14.68
2023-03-04T23:48:54.175Z,12.88
2023-03-04T23:51:23.832Z,13.68
2023-03-04T23:53:50.227Z,13.73
2023-03-04T23:56:20.106Z,13.45
2023-03-04T23:58:47.241Z,12.43
